Nearby METAR Reports

 

KCOU - Columbia, Missouri, USA
Distance from station: WNW 14mi, 23km
Updated: Fri, 02-Dec-2022 4:54pm CST
Overcast
Overcast
 Wind from SSW
Wind: SSW 21 mph , 33 km/h, Gust: 37 mph , 59 km/h
Temperature: 63°F , 17°C
Dew Point: 54°F , 12°C
Humidity: 73%
Barometer: 29.71 inHg , 1006.1 hPa
Clouds: Overcast
Visibility: 10 miles , 16 km
Cloud details: Overcast 2800 ft
2022/12/02 22:54 KCOU 022254Z 21018G32KT 10SM OVC028 17/12 A2971 RMK AO2 PK WND 21034/2159 SLP058 T01720117
KJEF - Jefferson City, Missouri, USA
Distance from station: SW 14mi, 23km
Updated: Fri, 02-Dec-2022 4:53pm CST
Overcast
Overcast
 Wind from S
Wind: S 13 mph , 20 km/h
Temperature: 63°F , 17°C
Dew Point: 52°F , 11°C
Humidity: 68%
Barometer: 29.72 inHg , 1006.4 hPa
Clouds: Overcast
Visibility: 10 miles , 16 km
Cloud details: Overcast 3200 ft
2022/12/02 22:53 KJEF 022253Z 19011KT 10SM OVC032 17/11 A2972 RMK AO2 SLP052 T01720111 $
 
KMYJ - Mexico, Missouri, USA
Distance from station: NNE 29mi, 46km
Updated: Fri, 02-Dec-2022 5:15pm CST
Partly cloudy
Partly cloudy
 Wind from S
Wind: S 17 mph , 28 km/h, Gust: 24 mph , 39 km/h
Temperature: 57°F , 14°C
Dew Point: 50°F , 10°C
Humidity: 77%
Barometer: 29.69 inHg , 1005.4 hPa
Clouds: Partly cloudy
Visibility: 10 miles , 16 km
Cloud details: Partly cloudy 3000 ft
Partly cloudy 3400 ft
2022/12/02 23:15 KMYJ 022315Z AUTO 19015G21KT 10SM SCT030 SCT034 14/10 A2969 RMK AO2
KVER - Boonville, Missouri, USA
Distance from station: WNW 41mi, 66km
Updated: Fri, 02-Dec-2022 5:15pm CST
Clear
Clear
 Wind from SW
Wind: SW 13 mph , 20 km/h, Gust: 24 mph , 39 km/h
Temperature: 61°F , 16°C
Dew Point: 52°F , 11°C
Humidity: 72%
Barometer: 29.72 inHg , 1006.4 hPa
Clouds: Clear
Visibility: 10 miles , 16 km
2022/12/02 23:15 KVER 022315Z AUTO 22011G21KT 10SM CLR 16/11 A2972 RMK AO2 T01610112
 
KVIH - Vichy/Rolla, Missouri, USA
Distance from station: SSE 44mi, 71km
Updated: Fri, 02-Dec-2022 4:53pm CST
Overcast
Overcast
 Wind from S
Wind: S 16 mph , 26 km/h, Gust: 28 mph , 44 km/h
Temperature: 55°F , 13°C
Dew Point: 48°F , 9°C
Humidity: 77%
Barometer: 29.79 inHg , 1008.8 hPa
Clouds: Overcast
Visibility: 10 miles , 16 km
Cloud details: Overcast 1900 ft
2022/12/02 22:53 KVIH 022253Z AUTO 17014G24KT 10SM OVC019 13/09 A2979 RMK AO2 PK WND 18034/2226 SLP085 T01330089
KFYG - Washington, Missouri, USA
Distance from station: ESE 53mi, 86km
Updated: Fri, 02-Dec-2022 5:15pm CST
Partly cloudy
Partly cloudy
 Wind from S
Wind: S 17 mph , 28 km/h
Temperature: 57°F , 14°C
Dew Point: 50°F , 10°C
Humidity: 77%
Barometer: 29.78 inHg , 1008.5 hPa
Clouds: Partly cloudy
Visibility: 10 miles , 16 km
Cloud details: Partly cloudy 2700 ft
Partly cloudy 5000 ft
Partly cloudy 6500 ft
2022/12/02 23:15 KFYG 022315Z AUTO 17015KT 10SM SCT027 SCT050 SCT065 14/10 A2978 RMK AO2
 
KAIZ - Kaiser Mem, Missouri, USA
Distance from station: SW 54mi, 88km
Updated: Fri, 02-Dec-2022 4:56pm CST
Overcast
Overcast
 Wind from SSW
Wind: SSW 20 mph , 31 km/h, Gust: 28 mph , 44 km/h
Temperature: 61°F , 16°C
Dew Point: 54°F , 12°C
Humidity: 77%
Clouds: Overcast
Visibility: 10 miles , 16 km
Cloud details: Overcast 2200 ft
2022/12/02 22:56 KAIZ 022256Z AUTO 20017G24KT 10SM OVC022 16/12 RMK AO2 PK WND 19028/2246 SLPNO T01610122 $
KMBY - Moberly, Missouri, USA
Distance from station: NNW 55mi, 89km
Updated: Fri, 02-Dec-2022 5:15pm CST
Clear
Clear
 Wind from SW
Wind: SW 13 mph , 20 km/h
Temperature: 59°F , 15°C
Dew Point: 46°F , 8°C
Humidity: 63%
Barometer: 29.69 inHg , 1005.4 hPa
Clouds: Clear
Visibility: 10 miles , 16 km
2022/12/02 23:15 KMBY 022315Z AUTO 23011KT 10SM CLR 15/08 A2969 RMK AO2
 
KUUV - Sullivan, Missouri, USA
Distance from station: SE 56mi, 90km
Updated: Fri, 02-Dec-2022 5:15pm CST
Overcast
Overcast
 Wind from S
Wind: S 14 mph , 22 km/h, Gust: 20 mph , 31 km/h
Temperature: 52°F , 11°C
Dew Point: 45°F , 7°C
Humidity: 77%
Barometer: 29.82 inHg , 1009.8 hPa
Clouds: Overcast
Visibility: 10 miles , 16 km
Cloud details: Mostly cloudy 1900 ft
Overcast 2500 ft
2022/12/02 23:15 KUUV 022315Z AUTO 19012G17KT 10SM BKN019 OVC025 11/07 A2982 RMK AO2
KDMO - Sedalia, Missouri, USA
Distance from station: W 65mi, 104km
Updated: Fri, 02-Dec-2022 5:13pm CST
Mostly cloudy
Mostly cloudy
 Wind from SW
Wind: SW 16 mph , 26 km/h, Gust: 25 mph , 41 km/h
Temperature: 57°F , 14°C
Dew Point: 50°F , 10°C
Humidity: 77%
Barometer: 29.74 inHg , 1007.1 hPa
Clouds: Mostly cloudy
Visibility: 10 miles , 16 km
Cloud details: Mostly cloudy 2500 ft
2022/12/02 23:13 KDMO 022313Z AUTO 22014G22KT 10SM BKN025 14/10 A2974 RMK AO2 PK WND 22031/2254 T01440100
 
KOZS - Camdenton, Missouri, USA
Distance from station: SW 67mi, 107km
Updated: Fri, 02-Dec-2022 5:15pm CST
Overcast
Overcast
 Wind from SSW
Wind: SSW 15 mph , 24 km/h, Gust: 25 mph , 41 km/h
Temperature: 61°F , 16°C
Dew Point: 52°F , 11°C
Humidity: 72%
Barometer: 29.76 inHg , 1007.8 hPa
Clouds: Overcast
Visibility: 10 miles , 16 km
Cloud details: Overcast 2100 ft
2022/12/02 23:15 KOZS 022315Z AUTO 21013G22KT 10SM OVC021 16/11 A2976 RMK AO2
KMHL - Marshall, Missouri, USA
Distance from station: WNW 70mi, 113km
Updated: Fri, 02-Dec-2022 5:15pm CST
Clear
Clear
 Wind from SSW
Wind: SSW 16 mph , 26 km/h, Gust: 22 mph , 35 km/h
Temperature: 55°F , 13°C
Dew Point: 48°F , 9°C
Humidity: 77%
Barometer: 29.72 inHg , 1006.4 hPa
Clouds: Clear
Visibility: 10 miles , 16 km
2022/12/02 23:15 KMHL 022315Z AUTO 21014G19KT 10SM CLR 13/09 A2972 RMK AO2
 
KSUS - St. Louis/Spirit, Missouri, USA
Distance from station: E 71mi, 115km
Updated: Fri, 02-Dec-2022 5:01pm CST
Overcast
Overcast
 Wind from S
Wind: S 10 mph , 17 km/h, Gust: 20 mph , 31 km/h
Temperature: 54°F , 12°C
Dew Point: 45°F , 7°C
Humidity: 72%
Barometer: 29.79 inHg , 1008.8 hPa
Clouds: Overcast
Visibility: 10 miles , 16 km
Cloud details: Overcast 2900 ft
2022/12/02 23:01 KSUS 022301Z 17009G17KT 10SM OVC029 12/07 A2979 RMK AO2 T01170072
KTBN - Fort Leonard Woo, Missouri, USA
Distance from station: S 72mi, 116km
Updated: Fri, 02-Dec-2022 4:55pm CST
Overcast
Overcast
 Wind from S
Wind: S 23 mph , 37 km/h, Gust: 32 mph , 52 km/h
Temperature: 54°F , 12°C
Dew Point: 46°F , 8°C
Humidity: 77%
Barometer: 29.77 inHg , 1008.1 hPa
Clouds: Overcast
Visibility: 10 miles , 16 km
Cloud details: Mostly cloudy 1700 ft
Overcast 2500 ft
2022/12/02 22:55 KTBN 022255Z AUTO 17020G28KT 10SM BKN017 OVC025 12/08 A2977 RMK AO2 SLP085 T01240081 $
 
KHAE - Hannibal, Missouri, USA
Distance from station: NNE 73mi, 118km
Updated: Fri, 02-Dec-2022 5:15pm CST
Overcast
Overcast
 Wind from SSW
Wind: SSW 16 mph , 26 km/h, Gust: 26 mph , 43 km/h
Temperature: 61°F , 16°C
Dew Point: 48°F , 9°C
Humidity: 63%
Barometer: 29.68 inHg , 1005.1 hPa
Clouds: Overcast
Visibility: 10 miles , 16 km
Cloud details: Mostly cloudy 3300 ft
Overcast 3800 ft
2022/12/02 23:15 KHAE 022315Z AUTO 21014G23KT 10SM BKN033 OVC038 16/09 A2968 RMK AO2